sensor_id;sensor_type;location;lat;lon;timestamp;P1;durP1;ratioP1;P2;durP2;ratioP2
76540;SDS011;65385;55.772;37.658;2024-03-22T00:00:18;18.38;;;7.68;;
76540;SDS011;65385;55.772;37.658;2024-03-22T00:01:19;17.38;;;8.07;;
76540;SDS011;65385;55.772;37.658;2024-03-22T00:02:20;16.52;;;7.47;;
76540;SDS011;65385;55.772;37.658;2024-03-22T00:03:20;19.33;;;8.10;;
76540;SDS011;65385;55.772;37.658;2024-03-22T00:04:22;14.30;;;7.40;;
76540;SDS011;65385;55.772;37.658;2024-03-22T00:05:23;17.85;;;6.90;;
76540;SDS011;65385;55.772;37.658;2024-03-22T00:06:23;14.57;;;7.28;;
76540;SDS011;65385;55.772;37.658;2024-03-22T00:07:24;13.88;;;7.63;;
76540;SDS011;65385;55.772;37.658;2024-03-22T00:08:24;16.13;;;9.02;;
76540;SDS011;65385;55.772;37.658;2024-03-22T00:09:25;14.55;;;7.03;;
76540;SDS011;65385;55.772;37.658;2024-03-22T00:10:26;13.50;;;7.55;;
76540;SDS011;65385;55.772;37.658;2024-03-22T00:11:26;16.60;;;7.85;;
76540;SDS011;65385;55.772;37.658;2024-03-22T00:12:27;13.20;;;7.60;;
76540;SDS011;65385;55.772;37.658;2024-03-22T00:13:27;11.32;;;7.28;;
76540;SDS011;65385;55.772;37.658;2024-03-22T00:14:28;17.65;;;9.00;;
76540;SDS011;65385;55.772;37.658;2024-03-22T00:15:29;11.98;;;6.63;;
76540;SDS011;65385;55.772;37.658;2024-03-22T00:16:29;15.38;;;6.80;;
76540;SDS011;65385;55.772;37.658;2024-03-22T00:17:30;14.07;;;6.57;;
76540;SDS011;65385;55.772;37.658;2024-03-22T00:18:31;14.68;;;7.78;;
76540;SDS011;65385;55.772;37.658;2024-03-22T00:19:31;12.23;;;6.78;;
76540;SDS011;65385;55.772;37.658;2024-03-22T00:20:32;15.38;;;6.78;;
76540;SDS011;65385;55.772;37.658;2024-03-22T00:21:32;21.05;;;7.60;;
76540;SDS011;65385;55.772;37.658;2024-03-22T00:22:33;18.23;;;8.10;;
76540;SDS011;65385;55.772;37.658;2024-03-22T00:23:33;19.67;;;7.88;;
76540;SDS011;65385;55.772;37.658;2024-03-22T00:24:34;14.88;;;6.85;;
76540;SDS011;65385;55.772;37.658;2024-03-22T00:25:35;13.90;;;7.00;;
76540;SDS011;65385;55.772;37.658;2024-03-22T00:26:35;17.80;;;7.75;;
76540;SDS011;65385;55.772;37.658;2024-03-22T00:27:36;15.10;;;7.53;;
76540;SDS011;65385;55.772;37.658;2024-03-22T00:28:36;15.15;;;7.82;;
76540;SDS011;65385;55.772;37.658;2024-03-22T00:29:37;14.55;;;7.57;;
76540;SDS011;65385;55.772;37.658;2024-03-22T00:30:38;16.35;;;8.35;;
76540;SDS011;65385;55.772;37.658;2024-03-22T00:31:38;13.60;;;7.20;;
76540;SDS011;65385;55.772;37.658;2024-03-22T00:32:39;17.38;;;7.20;;
76540;SDS011;65385;55.772;37.658;2024-03-22T00:33:40;14.15;;;7.30;;
76540;SDS011;65385;55.772;37.658;2024-03-22T00:34:40;16.48;;;7.35;;
76540;SDS011;65385;55.772;37.658;2024-03-22T00:35:41;17.58;;;7.30;;
76540;SDS011;65385;55.772;37.658;2024-03-22T00:36:41;16.85;;;7.95;;
76540;SDS011;65385;55.772;37.658;2024-03-22T00:37:42;15.18;;;7.20;;
76540;SDS011;65385;55.772;37.658;2024-03-22T00:38:43;13.90;;;7.07;;
76540;SDS011;65385;55.772;37.658;2024-03-22T00:39:43;16.17;;;7.18;;
76540;SDS011;65385;55.772;37.658;2024-03-22T00:40:44;13.45;;;7.35;;
76540;SDS011;65385;55.772;37.658;2024-03-22T00:41:45;16.33;;;7.28;;
76540;SDS011;65385;55.772;37.658;2024-03-22T00:42:45;15.98;;;6.95;;
76540;SDS011;65385;55.772;37.658;2024-03-22T00:43:46;11.75;;;6.55;;
76540;SDS011;65385;55.772;37.658;2024-03-22T00:44:46;15.88;;;7.70;;
76540;SDS011;65385;55.772;37.658;2024-03-22T00:45:47;13.23;;;7.55;;
76540;SDS011;65385;55.772;37.658;2024-03-22T00:46:48;11.52;;;6.45;;
76540;SDS011;65385;55.772;37.658;2024-03-22T00:47:48;13.63;;;7.13;;
76540;SDS011;65385;55.772;37.658;2024-03-22T00:48:49;16.52;;;7.63;;
76540;SDS011;65385;55.772;37.658;2024-03-22T00:49:50;14.65;;;7.80;;
76540;SDS011;65385;55.772;37.658;2024-03-22T00:50:50;11.82;;;6.55;;
76540;SDS011;65385;55.772;37.658;2024-03-22T00:51:51;14.73;;;7.30;;
76540;SDS011;65385;55.772;37.658;2024-03-22T00:52:51;14.52;;;7.47;;
76540;SDS011;65385;55.772;37.658;2024-03-22T00:53:56;10.77;;;6.60;;
76540;SDS011;65385;55.772;37.658;2024-03-22T00:54:57;17.25;;;6.90;;
76540;SDS011;65385;55.772;37.658;2024-03-22T00:55:57;14.95;;;6.75;;
76540;SDS011;65385;55.772;37.658;2024-03-22T00:57:01;18.67;;;7.85;;
76540;SDS011;65385;55.772;37.658;2024-03-22T00:58:02;11.63;;;7.18;;
76540;SDS011;65385;55.772;37.658;2024-03-22T00:59:02;24.90;;;8.02;;
76540;SDS011;65385;55.772;37.658;2024-03-22T01:00:03;15.73;;;8.60;;
76540;SDS011;65385;55.772;37.658;2024-03-22T01:01:05;11.73;;;7.07;;
76540;SDS011;65385;55.772;37.658;2024-03-22T01:02:05;12.27;;;7.22;;
76540;SDS011;65385;55.772;37.658;2024-03-22T01:03:06;18.58;;;7.47;;
76540;SDS011;65385;55.772;37.658;2024-03-22T01:04:07;11.77;;;7.30;;
76540;SDS011;65385;55.772;37.658;2024-03-22T01:05:09;15.32;;;7.00;;
76540;SDS011;65385;55.772;37.658;2024-03-22T01:06:09;15.48;;;8.10;;
76540;SDS011;65385;55.772;37.658;2024-03-22T01:07:10;14.90;;;7.95;;
76540;SDS011;65385;55.772;37.658;2024-03-22T01:08:11;15.02;;;8.18;;
76540;SDS011;65385;55.772;37.658;2024-03-22T01:09:11;13.68;;;7.22;;
76540;SDS011;65385;55.772;37.658;2024-03-22T01:10:12;20.40;;;7.70;;
76540;SDS011;65385;55.772;37.658;2024-03-22T01:11:13;16.52;;;7.93;;
76540;SDS011;65385;55.772;37.658;2024-03-22T01:12:13;16.58;;;7.68;;
76540;SDS011;65385;55.772;37.658;2024-03-22T01:13:14;14.30;;;7.75;;
76540;SDS011;65385;55.772;37.658;2024-03-22T01:14:15;15.48;;;7.55;;
76540;SDS011;65385;55.772;37.658;2024-03-22T01:15:15;19.52;;;8.07;;
76540;SDS011;65385;55.772;37.658;2024-03-22T01:16:16;17.65;;;7.72;;
76540;SDS011;65385;55.772;37.658;2024-03-22T01:17:17;17.70;;;8.75;;
76540;SDS011;65385;55.772;37.658;2024-03-22T01:18:17;17.42;;;8.05;;
76540;SDS011;65385;55.772;37.658;2024-03-22T01:19:18;18.48;;;7.30;;
76540;SDS011;65385;55.772;37.658;2024-03-22T01:20:18;17.38;;;7.05;;
76540;SDS011;65385;55.772;37.658;2024-03-22T01:21:19;13.45;;;8.00;;
76540;SDS011;65385;55.772;37.658;2024-03-22T01:22:25;15.23;;;7.32;;
76540;SDS011;65385;55.772;37.658;2024-03-22T01:23:25;10.98;;;7.38;;
76540;SDS011;65385;55.772;37.658;2024-03-22T01:24:26;14.07;;;7.70;;
76540;SDS011;65385;55.772;37.658;2024-03-22T01:25:27;16.60;;;7.22;;
76540;SDS011;65385;55.772;37.658;2024-03-22T01:26:28;14.73;;;7.75;;
76540;SDS011;65385;55.772;37.658;2024-03-22T01:27:28;16.60;;;7.55;;
76540;SDS011;65385;55.772;37.658;2024-03-22T01:28:29;15.52;;;7.40;;
76540;SDS011;65385;55.772;37.658;2024-03-22T01:29:29;14.38;;;7.35;;
76540;SDS011;65385;55.772;37.658;2024-03-22T01:30:31;14.60;;;7.82;;
76540;SDS011;65385;55.772;37.658;2024-03-22T01:31:33;14.40;;;8.05;;
76540;SDS011;65385;55.772;37.658;2024-03-22T01:32:34;16.02;;;7.38;;
76540;SDS011;65385;55.772;37.658;2024-03-22T01:33:35;15.77;;;7.55;;
76540;SDS011;65385;55.772;37.658;2024-03-22T01:34:36;15.65;;;7.22;;
76540;SDS011;65385;55.772;37.658;2024-03-22T01:35:36;16.27;;;7.15;;
76540;SDS011;65385;55.772;37.658;2024-03-22T01:36:37;15.27;;;8.23;;
76540;SDS011;65385;55.772;37.658;2024-03-22T01:37:38;13.75;;;7.93;;
76540;SDS011;65385;55.772;37.658;2024-03-22T01:38:38;14.77;;;8.13;;
76540;SDS011;65385;55.772;37.658;2024-03-22T01:39:39;15.35;;;7.93;;
76540;SDS011;65385;55.772;37.658;2024-03-22T01:40:39;19.08;;;8.45;;
76540;SDS011;65385;55.772;37.658;2024-03-22T01:41:40;18.05;;;7.65;;
76540;SDS011;65385;55.772;37.658;2024-03-22T01:42:40;16.70;;;7.70;;
76540;SDS011;65385;55.772;37.658;2024-03-22T01:43:41;15.20;;;7.88;;
76540;SDS011;65385;55.772;37.658;2024-03-22T01:44:42;15.20;;;8.60;;
76540;SDS011;65385;55.772;37.658;2024-03-22T01:45:42;13.60;;;7.68;;
76540;SDS011;65385;55.772;37.658;2024-03-22T01:46:43;17.70;;;8.55;;
76540;SDS011;65385;55.772;37.658;2024-03-22T01:47:45;15.25;;;8.68;;
76540;SDS011;65385;55.772;37.658;2024-03-22T01:48:45;16.38;;;8.32;;
76540;SDS011;65385;55.772;37.658;2024-03-22T01:49:47;12.77;;;7.35;;
76540;SDS011;65385;55.772;37.658;2024-03-22T01:50:50;20.30;;;8.85;;
76540;SDS011;65385;55.772;37.658;2024-03-22T01:51:52;11.00;;;6.95;;
76540;SDS011;65385;55.772;37.658;2024-03-22T01:52:52;15.70;;;7.97;;
76540;SDS011;65385;55.772;37.658;2024-03-22T01:53:53;13.93;;;7.50;;
76540;SDS011;65385;55.772;37.658;2024-03-22T01:54:54;14.75;;;8.30;;
76540;SDS011;65385;55.772;37.658;2024-03-22T01:55:55;13.02;;;6.63;;
76540;SDS011;65385;55.772;37.658;2024-03-22T01:56:56;14.77;;;8.15;;
76540;SDS011;65385;55.772;37.658;2024-03-22T01:57:57;16.63;;;8.55;;
76540;SDS011;65385;55.772;37.658;2024-03-22T01:58:58;14.75;;;7.50;;
76540;SDS011;65385;55.772;37.658;2024-03-22T01:59:59;17.35;;;8.35;;
76540;SDS011;65385;55.772;37.658;2024-03-22T02:01:00;15.65;;;7.05;;
76540;SDS011;65385;55.772;37.658;2024-03-22T02:02:00;15.52;;;7.43;;
76540;SDS011;65385;55.772;37.658;2024-03-22T02:03:02;15.43;;;8.10;;
76540;SDS011;65385;55.772;37.658;2024-03-22T02:04:03;14.43;;;7.97;;
76540;SDS011;65385;55.772;37.658;2024-03-22T02:05:17;15.27;;;7.20;;
76540;SDS011;65385;55.772;37.658;2024-03-22T02:06:22;16.00;;;7.70;;
76540;SDS011;65385;55.772;37.658;2024-03-22T02:07:22;13.80;;;7.78;;
76540;SDS011;65385;55.772;37.658;2024-03-22T02:08:23;15.77;;;8.02;;
76540;SDS011;65385;55.772;37.658;2024-03-22T02:09:24;17.65;;;7.40;;
76540;SDS011;65385;55.772;37.658;2024-03-22T02:10:25;15.57;;;7.72;;
76540;SDS011;65385;55.772;37.658;2024-03-22T02:11:26;17.00;;;8.88;;
76540;SDS011;65385;55.772;37.658;2024-03-22T02:12:28;15.27;;;7.53;;
76540;SDS011;65385;55.772;37.658;2024-03-22T02:13:28;17.67;;;8.45;;
76540;SDS011;65385;55.772;37.658;2024-03-22T02:14:29;14.85;;;8.10;;
76540;SDS011;65385;55.772;37.658;2024-03-22T02:15:30;17.55;;;8.02;;
76540;SDS011;65385;55.772;37.658;2024-03-22T02:16:51;18.67;;;8.15;;
76540;SDS011;65385;55.772;37.658;2024-03-22T02:17:52;16.90;;;8.23;;
76540;SDS011;65385;55.772;37.658;2024-03-22T02:18:52;21.58;;;8.80;;
76540;SDS011;65385;55.772;37.658;2024-03-22T02:19:53;22.73;;;8.93;;
76540;SDS011;65385;55.772;37.658;2024-03-22T02:20:54;15.88;;;9.85;;
76540;SDS011;65385;55.772;37.658;2024-03-22T02:21:57;15.82;;;8.52;;
76540;SDS011;65385;55.772;37.658;2024-03-22T02:22:57;19.05;;;8.70;;
76540;SDS011;65385;55.772;37.658;2024-03-22T02:23:58;15.93;;;9.10;;
76540;SDS011;65385;55.772;37.658;2024-03-22T02:24:58;22.73;;;10.43;;
76540;SDS011;65385;55.772;37.658;2024-03-22T02:25:59;18.00;;;10.45;;
76540;SDS011;65385;55.772;37.658;2024-03-22T02:27:00;20.55;;;9.88;;
76540;SDS011;65385;55.772;37.658;2024-03-22T02:28:01;22.17;;;9.55;;
76540;SDS011;65385;55.772;37.658;2024-03-22T02:29:01;17.75;;;10.82;;
76540;SDS011;65385;55.772;37.658;2024-03-22T02:30:02;22.98;;;11.30;;
76540;SDS011;65385;55.772;37.658;2024-03-22T02:31:03;18.25;;;9.40;;
76540;SDS011;65385;55.772;37.658;2024-03-22T02:32:05;20.42;;;9.57;;
76540;SDS011;65385;55.772;37.658;2024-03-22T02:33:06;17.98;;;10.43;;
76540;SDS011;65385;55.772;37.658;2024-03-22T02:34:06;24.77;;;10.18;;
76540;SDS011;65385;55.772;37.658;2024-03-22T02:35:07;20.40;;;10.82;;
76540;SDS011;65385;55.772;37.658;2024-03-22T02:36:08;21.50;;;10.30;;
76540;SDS011;65385;55.772;37.658;2024-03-22T02:37:09;18.17;;;10.88;;
76540;SDS011;65385;55.772;37.658;2024-03-22T02:38:10;22.05;;;9.27;;
76540;SDS011;65385;55.772;37.658;2024-03-22T02:39:10;19.33;;;9.65;;
76540;SDS011;65385;55.772;37.658;2024-03-22T02:40:11;15.32;;;7.30;;
76540;SDS011;65385;55.772;37.658;2024-03-22T02:41:12;18.17;;;8.80;;
76540;SDS011;65385;55.772;37.658;2024-03-22T02:42:14;19.08;;;7.40;;
76540;SDS011;65385;55.772;37.658;2024-03-22T02:43:14;17.30;;;9.80;;
76540;SDS011;65385;55.772;37.658;2024-03-22T02:44:15;17.20;;;8.65;;
76540;SDS011;65385;55.772;37.658;2024-03-22T02:45:15;15.88;;;8.25;;
76540;SDS011;65385;55.772;37.658;2024-03-22T02:46:16;15.82;;;8.88;;
76540;SDS011;65385;55.772;37.658;2024-03-22T02:47:16;19.23;;;9.25;;
76540;SDS011;65385;55.772;37.658;2024-03-22T02:48:17;16.30;;;8.70;;
76540;SDS011;65385;55.772;37.658;2024-03-22T02:49:18;16.60;;;7.78;;
76540;SDS011;65385;55.772;37.658;2024-03-22T02:50:19;16.63;;;8.20;;
76540;SDS011;65385;55.772;37.658;2024-03-22T02:51:19;22.95;;;8.38;;
76540;SDS011;65385;55.772;37.658;2024-03-22T02:52:20;13.95;;;6.47;;
76540;SDS011;65385;55.772;37.658;2024-03-22T02:53:20;21.48;;;8.48;;
76540;SDS011;65385;55.772;37.658;2024-03-22T02:54:21;18.33;;;7.88;;
76540;SDS011;65385;55.772;37.658;2024-03-22T02:55:21;12.27;;;7.38;;
76540;SDS011;65385;55.772;37.658;2024-03-22T02:56:22;16.23;;;7.70;;
76540;SDS011;65385;55.772;37.658;2024-03-22T02:57:22;16.95;;;7.60;;
76540;SDS011;65385;55.772;37.658;2024-03-22T02:58:23;16.98;;;8.13;;
76540;SDS011;65385;55.772;37.658;2024-03-22T02:59:26;17.02;;;8.23;;
76540;SDS011;65385;55.772;37.658;2024-03-22T03:00:27;14.95;;;6.85;;
76540;SDS011;65385;55.772;37.658;2024-03-22T03:01:28;17.85;;;8.48;;
76540;SDS011;65385;55.772;37.658;2024-03-22T03:02:28;16.13;;;7.75;;
76540;SDS011;65385;55.772;37.658;2024-03-22T03:03:29;13.50;;;6.93;;
76540;SDS011;65385;55.772;37.658;2024-03-22T03:04:30;16.10;;;7.63;;
76540;SDS011;65385;55.772;37.658;2024-03-22T03:05:30;12.25;;;7.32;;
76540;SDS011;65385;55.772;37.658;2024-03-22T03:06:31;15.40;;;7.72;;
76540;SDS011;65385;55.772;37.658;2024-03-22T03:07:31;11.95;;;7.40;;
76540;SDS011;65385;55.772;37.658;2024-03-22T03:08:32;15.20;;;8.18;;
76540;SDS011;65385;55.772;37.658;2024-03-22T03:09:32;16.45;;;7.65;;
76540;SDS011;65385;55.772;37.658;2024-03-22T03:10:33;18.77;;;8.48;;
76540;SDS011;65385;55.772;37.658;2024-03-22T03:11:34;14.00;;;8.30;;
76540;SDS011;65385;55.772;37.658;2024-03-22T03:12:34;14.02;;;7.78;;
76540;SDS011;65385;55.772;37.658;2024-03-22T03:13:35;15.55;;;8.45;;
76540;SDS011;65385;55.772;37.658;2024-03-22T03:14:35;14.15;;;7.13;;
76540;SDS011;65385;55.772;37.658;2024-03-22T03:15:36;18.45;;;8.73;;
76540;SDS011;65385;55.772;37.658;2024-03-22T03:16:37;15.45;;;7.80;;
76540;SDS011;65385;55.772;37.658;2024-03-22T03:17:37;12.85;;;7.28;;
76540;SDS011;65385;55.772;37.658;2024-03-22T03:18:38;14.32;;;7.50;;
76540;SDS011;65385;55.772;37.658;2024-03-22T03:19:38;17.48;;;9.73;;
76540;SDS011;65385;55.772;37.658;2024-03-22T03:20:39;16.88;;;8.63;;
76540;SDS011;65385;55.772;37.658;2024-03-22T03:21:40;16.23;;;7.65;;
76540;SDS011;65385;55.772;37.658;2024-03-22T03:22:40;17.63;;;7.95;;
76540;SDS011;65385;55.772;37.658;2024-03-22T03:23:41;15.88;;;8.02;;
76540;SDS011;65385;55.772;37.658;2024-03-22T03:24:41;15.10;;;7.15;;
76540;SDS011;65385;55.772;37.658;2024-03-22T03:25:43;20.02;;;8.30;;
76540;SDS011;65385;55.772;37.658;2024-03-22T03:26:44;17.20;;;7.85;;
76540;SDS011;65385;55.772;37.658;2024-03-22T03:27:44;17.17;;;7.70;;
76540;SDS011;65385;55.772;37.658;2024-03-22T03:28:45;17.42;;;9.07;;
76540;SDS011;65385;55.772;37.658;2024-03-22T03:29:46;19.17;;;8.27;;
76540;SDS011;65385;55.772;37.658;2024-03-22T03:30:46;17.15;;;8.68;;
76540;SDS011;65385;55.772;37.658;2024-03-22T03:31:47;16.13;;;8.07;;
76540;SDS011;65385;55.772;37.658;2024-03-22T03:32:49;13.77;;;8.43;;
76540;SDS011;65385;55.772;37.658;2024-03-22T03:33:49;14.57;;;8.18;;
76540;SDS011;65385;55.772;37.658;2024-03-22T03:34:50;19.23;;;8.75;;
76540;SDS011;65385;55.772;37.658;2024-03-22T03:35:51;21.17;;;8.65;;
76540;SDS011;65385;55.772;37.658;2024-03-22T03:36:52;14.32;;;8.38;;
76540;SDS011;65385;55.772;37.658;2024-03-22T03:37:53;20.05;;;8.57;;
76540;SDS011;65385;55.772;37.658;2024-03-22T03:38:53;20.45;;;8.93;;
76540;SDS011;65385;55.772;37.658;2024-03-22T03:39:54;16.27;;;7.95;;
76540;SDS011;65385;55.772;37.658;2024-03-22T03:40:54;18.08;;;8.35;;
76540;SDS011;65385;55.772;37.658;2024-03-22T03:41:55;15.43;;;8.30;;
76540;SDS011;65385;55.772;37.658;2024-03-22T03:42:56;21.00;;;8.77;;
76540;SDS011;65385;55.772;37.658;2024-03-22T03:43:56;17.17;;;8.25;;
76540;SDS011;65385;55.772;37.658;2024-03-22T03:44:57;17.77;;;8.80;;
76540;SDS011;65385;55.772;37.658;2024-03-22T03:45:57;23.27;;;9.35;;
76540;SDS011;65385;55.772;37.658;2024-03-22T03:46:59;13.57;;;8.57;;
76540;SDS011;65385;55.772;37.658;2024-03-22T03:48:00;16.48;;;8.77;;
76540;SDS011;65385;55.772;37.658;2024-03-22T03:49:01;16.92;;;8.57;;
76540;SDS011;65385;55.772;37.658;2024-03-22T03:50:02;15.32;;;9.00;;
76540;SDS011;65385;55.772;37.658;2024-03-22T03:51:05;14.18;;;7.85;;
76540;SDS011;65385;55.772;37.658;2024-03-22T03:52:05;15.90;;;8.55;;
76540;SDS011;65385;55.772;37.658;2024-03-22T03:53:06;17.60;;;9.25;;
76540;SDS011;65385;55.772;37.658;2024-03-22T03:54:06;21.38;;;9.02;;
76540;SDS011;65385;55.772;37.658;2024-03-22T03:55:07;15.25;;;7.57;;
76540;SDS011;65385;55.772;37.658;2024-03-22T03:56:08;14.93;;;8.40;;
76540;SDS011;65385;55.772;37.658;2024-03-22T03:57:08;15.13;;;9.25;;
76540;SDS011;65385;55.772;37.658;2024-03-22T03:58:09;21.05;;;10.02;;
76540;SDS011;65385;55.772;37.658;2024-03-22T03:59:09;16.67;;;7.88;;
76540;SDS011;65385;55.772;37.658;2024-03-22T04:00:10;18.25;;;8.65;;
76540;SDS011;65385;55.772;37.658;2024-03-22T04:01:11;14.20;;;8.30;;
76540;SDS011;65385;55.772;37.658;2024-03-22T04:02:11;20.77;;;8.88;;
76540;SDS011;65385;55.772;37.658;2024-03-22T04:03:12;19.90;;;8.77;;
76540;SDS011;65385;55.772;37.658;2024-03-22T04:04:13;15.52;;;7.88;;
76540;SDS011;65385;55.772;37.658;2024-03-22T04:05:13;18.27;;;8.30;;
76540;SDS011;65385;55.772;37.658;2024-03-22T04:06:14;15.80;;;9.10;;
76540;SDS011;65385;55.772;37.658;2024-03-22T04:07:15;16.52;;;9.20;;
76540;SDS011;65385;55.772;37.658;2024-03-22T04:08:15;15.18;;;8.20;;
76540;SDS011;65385;55.772;37.658;2024-03-22T04:09:16;18.85;;;8.88;;
76540;SDS011;65385;55.772;37.658;2024-03-22T04:10:16;18.10;;;9.27;;
76540;SDS011;65385;55.772;37.658;2024-03-22T04:11:18;16.52;;;9.18;;
76540;SDS011;65385;55.772;37.658;2024-03-22T04:12:18;13.63;;;7.57;;
76540;SDS011;65385;55.772;37.658;2024-03-22T04:13:19;16.70;;;9.85;;
76540;SDS011;65385;55.772;37.658;2024-03-22T04:14:19;17.23;;;9.10;;
76540;SDS011;65385;55.772;37.658;2024-03-22T04:15:20;18.48;;;9.60;;
76540;SDS011;65385;55.772;37.658;2024-03-22T04:16:20;16.27;;;9.43;;
76540;SDS011;65385;55.772;37.658;2024-03-22T04:17:21;17.33;;;9.90;;
76540;SDS011;65385;55.772;37.658;2024-03-22T04:18:21;19.90;;;9.80;;
76540;SDS011;65385;55.772;37.658;2024-03-22T04:19:22;16.65;;;8.02;;
76540;SDS011;65385;55.772;37.658;2024-03-22T04:20:22;17.85;;;9.18;;
76540;SDS011;65385;55.772;37.658;2024-03-22T04:21:23;14.75;;;8.07;;
76540;SDS011;65385;55.772;37.658;2024-03-22T04:22:24;17.33;;;9.98;;
76540;SDS011;65385;55.772;37.658;2024-03-22T04:23:25;24.17;;;9.95;;
76540;SDS011;65385;55.772;37.658;2024-03-22T04:24:26;16.90;;;9.57;;
76540;SDS011;65385;55.772;37.658;2024-03-22T04:25:26;14.98;;;8.13;;
76540;SDS011;65385;55.772;37.658;2024-03-22T04:26:27;19.70;;;9.13;;
76540;SDS011;65385;55.772;37.658;2024-03-22T04:27:28;20.08;;;9.55;;
76540;SDS011;65385;55.772;37.658;2024-03-22T04:28:29;18.70;;;10.02;;
76540;SDS011;65385;55.772;37.658;2024-03-22T04:29:30;17.63;;;9.15;;
76540;SDS011;65385;55.772;37.658;2024-03-22T04:30:30;19.77;;;9.57;;
76540;SDS011;65385;55.772;37.658;2024-03-22T04:31:31;16.67;;;9.15;;
76540;SDS011;65385;55.772;37.658;2024-03-22T04:32:31;16.27;;;8.48;;
76540;SDS011;65385;55.772;37.658;2024-03-22T04:33:32;20.35;;;9.88;;
76540;SDS011;65385;55.772;37.658;2024-03-22T04:34:33;17.58;;;9.60;;
76540;SDS011;65385;55.772;37.658;2024-03-22T04:35:33;22.35;;;9.43;;
76540;SDS011;65385;55.772;37.658;2024-03-22T04:36:34;19.17;;;9.68;;
76540;SDS011;65385;55.772;37.658;2024-03-22T04:37:35;20.92;;;9.85;;
76540;SDS011;65385;55.772;37.658;2024-03-22T04:38:35;19.38;;;9.82;;
76540;SDS011;65385;55.772;37.658;2024-03-22T04:39:36;21.67;;;9.75;;
76540;SDS011;65385;55.772;37.658;2024-03-22T04:40:36;16.92;;;9.85;;
76540;SDS011;65385;55.772;37.658;2024-03-22T04:41:37;19.85;;;9.27;;
76540;SDS011;65385;55.772;37.658;2024-03-22T04:42:38;21.58;;;10.20;;
76540;SDS011;65385;55.772;37.658;2024-03-22T04:43:38;16.52;;;9.43;;
76540;SDS011;65385;55.772;37.658;2024-03-22T04:44:39;15.55;;;9.98;;
76540;SDS011;65385;55.772;37.658;2024-03-22T04:45:41;19.10;;;9.93;;
76540;SDS011;65385;55.772;37.658;2024-03-22T04:46:42;21.17;;;10.85;;
76540;SDS011;65385;55.772;37.658;2024-03-22T04:47:43;18.80;;;9.98;;
76540;SDS011;65385;55.772;37.658;2024-03-22T04:48:44;24.75;;;10.68;;
76540;SDS011;65385;55.772;37.658;2024-03-22T04:49:45;13.63;;;8.77;;
76540;SDS011;65385;55.772;37.658;2024-03-22T04:50:45;17.13;;;10.05;;
76540;SDS011;65385;55.772;37.658;2024-03-22T04:51:47;21.73;;;9.18;;
76540;SDS011;65385;55.772;37.658;2024-03-22T04:52:48;21.08;;;9.98;;
76540;SDS011;65385;55.772;37.658;2024-03-22T04:53:49;16.30;;;9.60;;
76540;SDS011;65385;55.772;37.658;2024-03-22T04:54:49;19.02;;;9.80;;
76540;SDS011;65385;55.772;37.658;2024-03-22T04:55:50;18.42;;;9.32;;
76540;SDS011;65385;55.772;37.658;2024-03-22T04:56:51;16.30;;;9.25;;
76540;SDS011;65385;55.772;37.658;2024-03-22T04:57:52;18.80;;;9.77;;
76540;SDS011;65385;55.772;37.658;2024-03-22T04:58:52;17.77;;;10.93;;
76540;SDS011;65385;55.772;37.658;2024-03-22T04:59:55;16.45;;;9.82;;
76540;SDS011;65385;55.772;37.658;2024-03-22T05:00:56;17.92;;;9.82;;
76540;SDS011;65385;55.772;37.658;2024-03-22T05:01:57;20.02;;;10.88;;
76540;SDS011;65385;55.772;37.658;2024-03-22T05:02:58;19.80;;;10.50;;
76540;SDS011;65385;55.772;37.658;2024-03-22T05:03:59;14.52;;;8.70;;
76540;SDS011;65385;55.772;37.658;2024-03-22T05:04:59;18.40;;;9.50;;
76540;SDS011;65385;55.772;37.658;2024-03-22T05:06:00;16.83;;;10.60;;
76540;SDS011;65385;55.772;37.658;2024-03-22T05:07:03;15.10;;;9.88;;
76540;SDS011;65385;55.772;37.658;2024-03-22T05:08:04;18.77;;;9.40;;
76540;SDS011;65385;55.772;37.658;2024-03-22T05:09:06;21.63;;;9.82;;
76540;SDS011;65385;55.772;37.658;2024-03-22T05:10:10;18.08;;;9.57;;
76540;SDS011;65385;55.772;37.658;2024-03-22T05:11:11;19.23;;;10.70;;
76540;SDS011;65385;55.772;37.658;2024-03-22T05:12:12;16.65;;;9.57;;
76540;SDS011;65385;55.772;37.658;2024-03-22T05:13:13;16.88;;;10.35;;
76540;SDS011;65385;55.772;37.658;2024-03-22T05:14:13;16.77;;;10.35;;
76540;SDS011;65385;55.772;37.658;2024-03-22T05:15:14;17.08;;;10.13;;
76540;SDS011;65385;55.772;37.658;2024-03-22T05:16:14;17.05;;;10.38;;
76540;SDS011;65385;55.772;37.658;2024-03-22T05:17:15;22.90;;;11.07;;
76540;SDS011;65385;55.772;37.658;2024-03-22T05:18:16;18.27;;;10.75;;
76540;SDS011;65385;55.772;37.658;2024-03-22T05:19:16;20.23;;;11.07;;
76540;SDS011;65385;55.772;37.658;2024-03-22T05:20:17;19.95;;;10.13;;
76540;SDS011;65385;55.772;37.658;2024-03-22T05:21:18;17.70;;;9.13;;
76540;SDS011;65385;55.772;37.658;2024-03-22T05:22:18;22.38;;;10.27;;
76540;SDS011;65385;55.772;37.658;2024-03-22T05:23:20;19.85;;;10.90;;
76540;SDS011;65385;55.772;37.658;2024-03-22T05:24:20;19.52;;;10.23;;
76540;SDS011;65385;55.772;37.658;2024-03-22T05:25:21;25.48;;;11.02;;
76540;SDS011;65385;55.772;37.658;2024-03-22T05:26:22;21.80;;;11.23;;
76540;SDS011;65385;55.772;37.658;2024-03-22T05:27:22;18.85;;;10.20;;
76540;SDS011;65385;55.772;37.658;2024-03-22T05:28:23;22.90;;;10.52;;
76540;SDS011;65385;55.772;37.658;2024-03-22T05:29:24;17.88;;;11.02;;
76540;SDS011;65385;55.772;37.658;2024-03-22T05:30:24;19.73;;;10.98;;
76540;SDS011;65385;55.772;37.658;2024-03-22T05:31:25;18.05;;;10.73;;
76540;SDS011;65385;55.772;37.658;2024-03-22T05:32:26;19.52;;;10.65;;
76540;SDS011;65385;55.772;37.658;2024-03-22T05:33:26;22.40;;;10.82;;
76540;SDS011;65385;55.772;37.658;2024-03-22T05:34:27;17.27;;;10.38;;
76540;SDS011;65385;55.772;37.658;2024-03-22T05:35:28;20.33;;;11.75;;
76540;SDS011;65385;55.772;37.658;2024-03-22T05:36:28;20.05;;;9.85;;
76540;SDS011;65385;55.772;37.658;2024-03-22T05:37:29;18.40;;;9.90;;
76540;SDS011;65385;55.772;37.658;2024-03-22T05:38:30;19.50;;;11.07;;
76540;SDS011;65385;55.772;37.658;2024-03-22T05:39:31;19.17;;;10.73;;
76540;SDS011;65385;55.772;37.658;2024-03-22T05:40:32;20.13;;;10.35;;
76540;SDS011;65385;55.772;37.658;2024-03-22T05:41:32;18.90;;;10.00;;
76540;SDS011;65385;55.772;37.658;2024-03-22T05:42:33;17.60;;;10.82;;
76540;SDS011;65385;55.772;37.658;2024-03-22T05:43:33;22.40;;;11.15;;
76540;SDS011;65385;55.772;37.658;2024-03-22T05:44:34;19.60;;;11.45;;
76540;SDS011;65385;55.772;37.658;2024-03-22T05:45:35;18.95;;;10.15;;
76540;SDS011;65385;55.772;37.658;2024-03-22T05:46:36;19.23;;;10.10;;
76540;SDS011;65385;55.772;37.658;2024-03-22T05:47:36;17.08;;;10.48;;
76540;SDS011;65385;55.772;37.658;2024-03-22T05:48:38;17.67;;;11.10;;
76540;SDS011;65385;55.772;37.658;2024-03-22T05:49:38;18.77;;;10.38;;
76540;SDS011;65385;55.772;37.658;2024-03-22T05:50:40;19.67;;;11.15;;
76540;SDS011;65385;55.772;37.658;2024-03-22T05:51:40;25.10;;;11.02;;
76540;SDS011;65385;55.772;37.658;2024-03-22T05:52:41;19.58;;;10.82;;
76540;SDS011;65385;55.772;37.658;2024-03-22T05:53:42;21.73;;;10.02;;
76540;SDS011;65385;55.772;37.658;2024-03-22T05:54:43;21.60;;;11.30;;